createdAt,value
2022-09-12T00:00:45.531Z,89.40
2022-09-12T00:03:12.802Z,89.34
2022-09-12T00:05:45.504Z,89.28
2022-09-12T00:08:13.717Z,89.03
2022-09-12T00:10:42.931Z,89.04
2022-09-12T00:13:11.308Z,88.98
2022-09-12T00:15:42.860Z,88.90
2022-09-12T00:18:14.455Z,88.79
2022-09-12T00:20:46.954Z,88.61
2022-09-12T00:23:14.955Z,88.47
2022-09-12T00:25:47.290Z,88.47
2022-09-12T00:28:16.811Z,88.36
2022-09-12T00:30:45.729Z,88.15
2022-09-12T00:33:14.327Z,88.11
2022-09-12T00:35:45.804Z,88.04
2022-09-12T00:38:14.148Z,88.15
2022-09-12T00:40:42.649Z,88.16
2022-09-12T00:43:32.606Z,87.85
2022-09-12T00:46:05.511Z,87.23
2022-09-12T00:48:38.459Z,87.05
2022-09-12T00:51:06.225Z,87.09
2022-09-12T00:53:33.654Z,86.81
2022-09-12T00:56:01.692Z,86.86
2022-09-12T00:58:34.411Z,86.84
2022-09-12T01:01:01.919Z,86.75
2022-09-12T01:03:29.446Z,86.47
2022-09-12T01:05:56.831Z,86.39
2022-09-12T01:08:26.550Z,86.04
2022-09-12T01:10:54.685Z,86.20
2022-09-12T01:13:22.582Z,86.49
2022-09-12T01:15:49.862Z,86.99
2022-09-12T01:18:32.282Z,87.32
2022-09-12T01:21:30.303Z,87.28
2022-09-12T01:24:17.392Z,87.60
2022-09-12T01:27:03.066Z,87.43
2022-09-12T01:30:07.451Z,87.45
2022-09-12T01:33:02.094Z,87.18
2022-09-12T01:35:54.030Z,87.40
2022-09-12T01:38:33.138Z,87.33
2022-09-12T01:41:37.159Z,87.29
2022-09-12T01:44:12.961Z,86.99
2022-09-12T01:46:49.197Z,87.00
2022-09-12T01:49:36.738Z,87.03
2022-09-12T01:52:37.911Z,86.57
2022-09-12T01:55:12.830Z,86.38
2022-09-12T01:57:47.107Z,86.07
2022-09-12T02:00:14.915Z,85.93
2022-09-12T02:02:51.965Z,85.60
2022-09-12T02:05:31.163Z,85.84
2022-09-12T02:08:17.221Z,85.39
2022-09-12T02:10:50.829Z,85.45
2022-09-12T02:13:38.397Z,85.72
2022-09-12T02:16:32.008Z,86.12
2022-09-12T02:19:05.939Z,86.41
2022-09-12T02:21:35.125Z,86.94
2022-09-12T02:24:03.603Z,87.21
2022-09-12T02:26:44.435Z,87.60
2022-09-12T02:29:11.702Z,87.77
2022-09-12T02:31:46.618Z,87.86
2022-09-12T02:34:41.874Z,87.98
2022-09-12T02:37:13.110Z,88.10
2022-09-12T02:39:44.999Z,88.06
2022-09-12T02:42:13.378Z,88.19
2022-09-12T02:44:41.178Z,88.31
2022-09-12T02:47:19.634Z,88.34
2022-09-12T02:49:47.413Z,88.44
2022-09-12T02:52:15.255Z,88.36
2022-09-12T02:54:43.657Z,88.50
2022-09-12T02:57:23.155Z,88.39
2022-09-12T02:59:54.999Z,88.45
2022-09-12T03:02:30.375Z,88.52
2022-09-12T03:05:00.522Z,88.68
2022-09-12T03:07:39.756Z,88.63
2022-09-12T03:10:24.718Z,88.53
2022-09-12T03:13:06.817Z,88.36
2022-09-12T03:15:55.644Z,88.39
2022-09-12T03:18:40.951Z,88.43
2022-09-12T03:21:17.065Z,88.32
2022-09-12T03:23:53.416Z,88.17
2022-09-12T03:26:31.122Z,88.00
2022-09-12T03:28:59.390Z,88.00
2022-09-12T03:31:26.705Z,87.91
2022-09-12T03:33:53.902Z,87.96
2022-09-12T03:36:26.351Z,88.07
2022-09-12T03:38:53.942Z,87.88
2022-09-12T03:41:21.525Z,87.94
2022-09-12T03:43:49.292Z,87.82
2022-09-12T03:46:16.545Z,87.84
2022-09-12T03:48:43.794Z,88.08
2022-09-12T03:51:11.500Z,88.05
2022-09-12T03:53:38.763Z,87.84
2022-09-12T03:56:10.938Z,87.71
2022-09-12T03:58:38.706Z,87.64
2022-09-12T04:01:14.515Z,87.74
2022-09-12T04:03:46.997Z,87.80
2022-09-12T04:06:18.072Z,87.77
2022-09-12T04:08:48.957Z,88.09
2022-09-12T04:11:17.384Z,87.87
2022-09-12T04:13:45.501Z,87.95
2022-09-12T04:16:14.161Z,87.80
2022-09-12T04:18:42.076Z,87.76
2022-09-12T04:21:12.596Z,87.80
2022-09-12T04:23:39.821Z,87.63
2022-09-12T04:26:08.091Z,87.77
2022-09-12T04:28:37.268Z,87.85
2022-09-12T04:31:11.441Z,87.78
2022-09-12T04:33:38.969Z,87.81
2022-09-12T04:36:08.834Z,87.84
2022-09-12T04:38:36.805Z,87.84
2022-09-12T04:41:14.125Z,87.63
2022-09-12T04:43:42.139Z,87.27
2022-09-12T04:46:11.538Z,87.11
2022-09-12T04:48:39.169Z,87.12
2022-09-12T04:51:11.708Z,86.94
2022-09-12T04:53:39.702Z,86.43
2022-09-12T04:56:08.890Z,86.70
2022-09-12T04:58:36.504Z,86.27
2022-09-12T05:01:10.747Z,86.22
2022-09-12T05:03:39.578Z,86.02
2022-09-12T05:06:09.794Z,85.84
2022-09-12T05:08:37.415Z,85.78
2022-09-12T05:11:11.330Z,85.40
2022-09-12T05:13:39.313Z,84.92
2022-09-12T05:16:07.937Z,84.64
2022-09-12T05:18:36.729Z,84.33
2022-09-12T05:21:08.003Z,84.19
2022-09-12T05:23:35.644Z,84.20
2022-09-12T05:26:05.509Z,83.77
2022-09-12T05:28:36.196Z,83.06
2022-09-12T05:31:24.782Z,82.80
2022-09-12T05:33:53.758Z,82.01
2022-09-12T05:36:24.327Z,81.56
2022-09-12T05:38:51.958Z,81.83
2022-09-12T05:41:24.963Z,81.77
2022-09-12T05:43:57.934Z,81.71
2022-09-12T05:46:27.845Z,80.75
2022-09-12T05:48:56.832Z,79.90
2022-09-12T05:51:41.709Z,79.12
2022-09-12T05:54:12.059Z,78.12
2022-09-12T05:56:43.947Z,78.12
2022-09-12T05:59:14.367Z,77.85
2022-09-12T06:01:42.258Z,78.53
2022-09-12T06:04:10.029Z,78.48
2022-09-12T06:06:41.695Z,79.86
2022-09-12T06:09:09.942Z,78.83
2022-09-12T06:11:40.787Z,79.74
2022-09-12T06:14:10.051Z,79.41
2022-09-12T06:16:37.865Z,79.65
2022-09-12T06:19:08.296Z,78.02
2022-09-12T06:21:35.580Z,77.51
2022-09-12T06:24:02.957Z,78.60
2022-09-12T06:26:30.904Z,76.92
2022-09-12T06:29:00.357Z,76.06
2022-09-12T06:31:34.707Z,75.29
2022-09-12T06:34:05.364Z,75.63
2022-09-12T06:36:36.822Z,76.15
2022-09-12T06:39:23.296Z,76.36
2022-09-12T06:41:52.065Z,76.88
2022-09-12T06:44:29.710Z,77.88
2022-09-12T06:46:58.691Z,78.32
2022-09-12T06:49:25.913Z,77.08
2022-09-12T06:51:53.137Z,76.32
2022-09-12T06:54:20.466Z,75.10
2022-09-12T06:56:47.650Z,72.32
2022-09-12T06:59:15.064Z,70.95
2022-09-12T07:01:42.441Z,70.61
2022-09-12T07:04:10.170Z,72.44
2022-09-12T07:06:42.311Z,71.06
2022-09-12T07:09:16.358Z,69.72
2022-09-12T07:11:44.974Z,67.61
2022-09-12T07:14:14.230Z,67.07
2022-09-12T07:16:42.028Z,67.32
2022-09-12T07:19:10.326Z,67.93
2022-09-12T07:21:40.191Z,68.01
2022-09-12T07:24:09.951Z,67.14
2022-09-12T07:26:38.758Z,65.41
2022-09-12T07:29:32.743Z,65.59
2022-09-12T07:31:53.921Z,65.89
2022-09-12T07:34:21.250Z,66.82
2022-09-12T07:36:48.427Z,67.36
2022-09-12T07:39:15.671Z,66.76
2022-09-12T07:41:42.888Z,66.32
2022-09-12T07:44:10.422Z,65.42
2022-09-12T07:46:38.336Z,64.69
2022-09-12T07:49:05.541Z,63.70
2022-09-12T07:51:32.859Z,62.77
2022-09-12T07:54:00.314Z,61.10
2022-09-12T07:56:31.256Z,60.02
2022-09-12T07:58:59.290Z,60.94
2022-09-12T08:01:27.130Z,59.19
2022-09-12T08:03:57.341Z,60.65
2022-09-12T08:06:26.361Z,60.20
2022-09-12T08:08:56.233Z,59.68
2022-09-12T08:11:24.604Z,58.11
2022-09-12T08:13:55.409Z,59.10
2022-09-12T08:16:26.255Z,57.73
2022-09-12T08:18:53.847Z,59.03
2022-09-12T08:21:27.014Z,60.16
2022-09-12T08:23:56.784Z,60.39
2022-09-12T08:26:24.818Z,60.41
2022-09-12T08:28:53.254Z,60.71
2022-09-12T08:31:23.037Z,61.10
2022-09-12T08:33:50.711Z,62.61
2022-09-12T08:36:23.989Z,59.45
2022-09-12T08:38:59.871Z,58.08
2022-09-12T08:41:35.081Z,59.19
2022-09-12T08:44:30.119Z,60.19
2022-09-12T08:47:03.238Z,56.37
2022-09-12T08:49:45.206Z,53.49
2022-09-12T08:52:18.163Z,52.70
2022-09-12T08:54:45.901Z,53.36
2022-09-12T08:57:15.076Z,54.55
2022-09-12T08:59:46.356Z,53.79
2022-09-12T09:02:42.113Z,50.95
2022-09-12T09:05:23.241Z,53.84
2022-09-12T09:07:59.288Z,56.01
2022-09-12T09:10:45.349Z,53.88
2022-09-12T09:13:50.904Z,52.43
2022-09-12T09:16:30.636Z,52.83
2022-09-12T09:19:02.262Z,50.46
2022-09-12T09:21:42.952Z,51.46
2022-09-12T09:24:14.683Z,52.58
2022-09-12T09:27:23.559Z,54.24
2022-09-12T09:29:55.822Z,57.08
2022-09-12T09:32:38.059Z,59.24
2022-09-12T09:35:44.365Z,58.91
2022-09-12T09:38:31.888Z,54.83
2022-09-12T09:41:05.228Z,55.01
2022-09-12T09:43:32.634Z,54.26
2022-09-12T09:46:02.895Z,51.83
2022-09-12T09:48:33.014Z,54.77
2022-09-12T09:51:02.127Z,51.46
2022-09-12T09:53:35.126Z,49.61
2022-09-12T09:56:09.685Z,50.15
2022-09-12T09:58:37.195Z,49.31
2022-09-12T10:01:06.533Z,51.53
2022-09-12T10:03:39.113Z,48.92
2022-09-12T10:06:22.313Z,49.86
2022-09-12T10:08:50.524Z,47.27
2022-09-12T10:11:22.125Z,47.96
2022-09-12T10:13:51.477Z,50.30
2022-09-12T10:16:19.454Z,52.08
2022-09-12T10:18:46.774Z,50.99
2022-09-12T10:21:23.382Z,48.86
2022-09-12T10:24:19.549Z,48.52
2022-09-12T10:26:56.582Z,49.92
2022-09-12T10:29:31.630Z,50.56
2022-09-12T10:32:04.865Z,47.68
2022-09-12T10:34:39.260Z,48.50
2022-09-12T10:37:10.572Z,47.11
2022-09-12T10:39:38.894Z,45.39
2022-09-12T10:42:06.417Z,42.98
2022-09-12T10:44:35.514Z,43.60
2022-09-12T10:47:23.977Z,43.23
2022-09-12T10:49:51.247Z,43.36
2022-09-12T10:52:23.653Z,41.80
2022-09-12T10:54:52.167Z,42.27
2022-09-12T10:57:22.215Z,45.48
2022-09-12T11:00:14.579Z,44.97
2022-09-12T11:03:09.277Z,44.76
2022-09-12T11:05:53.802Z,44.82
2022-09-12T11:08:30.062Z,46.45
2022-09-12T11:11:07.770Z,47.32
2022-09-12T11:13:52.742Z,45.85
2022-09-12T11:16:44.187Z,46.24
2022-09-12T11:19:23.805Z,47.69
2022-09-12T11:22:00.203Z,48.77
2022-09-12T11:25:07.375Z,49.95
2022-09-12T11:27:52.378Z,48.44
2022-09-12T11:30:19.685Z,43.69
2022-09-12T11:33:09.261Z,43.50
2022-09-12T11:35:55.015Z,42.69
2022-09-12T11:38:43.943Z,42.78
2022-09-12T11:41:34.771Z,45.39
2022-09-12T11:44:15.369Z,44.07
2022-09-12T11:46:46.666Z,44.16
2022-09-12T11:49:36.809Z,43.14
2022-09-12T11:52:18.719Z,44.20
2022-09-12T11:55:27.278Z,43.84
2022-09-12T11:57:56.815Z,45.76
2022-09-12T12:00:33.125Z,46.84
2022-09-12T12:03:07.915Z,48.57
2022-09-12T12:05:47.903Z,43.66
2022-09-12T12:08:15.666Z,43.16
2022-09-12T12:10:56.405Z,44.98
2022-09-12T12:13:46.633Z,42.82
2022-09-12T12:16:20.189Z,44.00
2022-09-12T12:18:55.690Z,45.58
2022-09-12T12:21:37.905Z,47.69
2022-09-12T12:24:08.201Z,48.04
2022-09-12T12:26:41.479Z,48.65
2022-09-12T12:29:17.483Z,48.26
2022-09-12T12:32:10.431Z,47.66
2022-09-12T12:34:40.529Z,49.33
2022-09-12T12:37:19.813Z,48.90
2022-09-12T12:39:48.124Z,50.46
2022-09-12T12:42:35.554Z,50.99
2022-09-12T12:45:08.342Z,51.30
2022-09-12T12:47:38.627Z,50.55
2022-09-12T12:50:10.627Z,47.95
2022-09-12T12:52:54.170Z,47.89
2022-09-12T12:55:28.978Z,47.72
2022-09-12T12:57:58.058Z,46.63
2022-09-12T13:00:25.395Z,46.80
2022-09-12T13:02:59.711Z,46.58
2022-09-12T13:05:29.634Z,47.71
2022-09-12T13:08:06.742Z,47.62
2022-09-12T13:10:34.620Z,47.05
2022-09-12T13:13:05.279Z,47.53
2022-09-12T13:15:35.601Z,47.54
2022-09-12T13:18:10.349Z,46.92
2022-09-12T13:21:09.068Z,47.40
2022-09-12T13:23:36.578Z,48.00
2022-09-12T13:26:10.095Z,48.86
2022-09-12T13:28:37.327Z,49.70
2022-09-12T13:31:24.809Z,48.45
2022-09-12T13:34:02.665Z,48.90
2022-09-12T13:36:51.745Z,49.16
2022-09-12T13:39:21.960Z,49.15
2022-09-12T13:42:13.938Z,49.89
2022-09-12T13:44:56.051Z,50.30
2022-09-12T13:47:46.950Z,51.78
2022-09-12T13:50:19.520Z,49.47
2022-09-12T13:52:53.258Z,49.98
2022-09-12T13:55:41.560Z,49.41
2022-09-12T13:58:27.067Z,49.69
2022-09-12T14:01:10.542Z,49.25
2022-09-12T14:04:06.779Z,49.03
2022-09-12T14:06:46.573Z,50.08
2022-09-12T14:09:25.227Z,50.97
2022-09-12T14:11:53.774Z,50.86
2022-09-12T14:14:31.457Z,50.83
2022-09-12T14:17:00.177Z,51.18
2022-09-12T14:19:29.359Z,51.20
2022-09-12T14:21:57.660Z,50.13
2022-09-12T14:24:25.305Z,50.95
2022-09-12T14:26:54.268Z,51.77
2022-09-12T14:29:22.725Z,51.54
2022-09-12T14:32:02.567Z,51.21
2022-09-12T14:34:29.886Z,51.91
2022-09-12T14:36:57.856Z,51.98
2022-09-12T14:39:37.884Z,51.77
2022-09-12T14:42:16.532Z,50.91
2022-09-12T14:44:58.740Z,51.45
2022-09-12T14:47:29.592Z,51.56
2022-09-12T14:49:57.595Z,51.67
2022-09-12T14:52:29.310Z,52.42
2022-09-12T14:55:28.146Z,52.36
2022-09-12T14:58:20.156Z,53.28
2022-09-12T15:01:06.244Z,52.78
2022-09-12T15:03:51.950Z,53.13
2022-09-12T15:06:31.229Z,53.45
2022-09-12T15:09:02.383Z,53.95
2022-09-12T15:11:29.617Z,53.79
2022-09-12T15:13:56.849Z,54.08
2022-09-12T15:16:24.083Z,55.43
2022-09-12T15:18:51.311Z,54.65
2022-09-12T15:21:20.245Z,53.84
2022-09-12T15:23:50.186Z,53.96
2022-09-12T15:26:20.752Z,54.25
2022-09-12T15:28:48.547Z,53.68
2022-09-12T15:31:21.800Z,53.73
2022-09-12T15:33:49.106Z,54.33
2022-09-12T15:36:18.969Z,54.22
2022-09-12T15:38:47.459Z,53.88
2022-09-12T15:41:20.367Z,53.93
2022-09-12T15:43:48.769Z,54.35
2022-09-12T15:46:17.725Z,54.36
2022-09-12T15:48:45.751Z,54.35
2022-09-12T15:51:15.771Z,55.35
2022-09-12T15:53:43.832Z,55.03
2022-09-12T15:56:11.256Z,55.54
2022-09-12T15:58:46.016Z,55.52
2022-09-12T16:01:24.764Z,55.63
2022-09-12T16:03:52.174Z,55.84
2022-09-12T16:06:19.410Z,56.03
2022-09-12T16:08:46.700Z,56.48
2022-09-12T16:11:22.834Z,56.66
2022-09-12T16:13:52.133Z,56.43
2022-09-12T16:16:19.757Z,56.51
2022-09-12T16:18:47.251Z,56.46
2022-09-12T16:21:15.685Z,56.44
2022-09-12T16:23:44.210Z,57.26
2022-09-12T16:26:11.495Z,57.55
2022-09-12T16:28:38.967Z,57.71
2022-09-12T16:31:08.004Z,58.16
2022-09-12T16:33:37.853Z,58.80
2022-09-12T16:36:06.585Z,58.88
2022-09-12T16:38:35.809Z,58.64
2022-09-12T16:41:05.803Z,58.94
2022-09-12T16:43:34.367Z,59.72
2022-09-12T16:46:16.046Z,60.04
2022-09-12T16:48:50.993Z,60.24
2022-09-12T16:51:22.091Z,60.44
2022-09-12T16:53:49.504Z,60.57
2022-09-12T16:56:17.610Z,61.76
2022-09-12T16:58:45.585Z,61.74
2022-09-12T17:01:14.241Z,61.46
2022-09-12T17:03:42.461Z,61.55
2022-09-12T17:06:12.101Z,61.82
2022-09-12T17:08:42.554Z,62.73
2022-09-12T17:11:21.931Z,62.66
2022-09-12T17:14:05.347Z,63.66
2022-09-12T17:16:39.519Z,62.89
2022-09-12T17:19:07.540Z,63.81
2022-09-12T17:21:35.488Z,63.56
2022-09-12T17:24:03.585Z,63.85
2022-09-12T17:26:30.950Z,64.62
2022-09-12T17:28:58.301Z,64.62
2022-09-12T17:31:26.600Z,64.71
2022-09-12T17:33:58.539Z,65.11
2022-09-12T17:36:26.817Z,65.06
2022-09-12T17:38:54.307Z,65.02
2022-09-12T17:41:23.949Z,65.48
2022-09-12T17:43:57.236Z,65.81
2022-09-12T17:46:29.703Z,65.91
2022-09-12T17:48:57.835Z,66.61
2022-09-12T17:51:26.330Z,66.32
2022-09-12T17:54:15.697Z,67.00
2022-09-12T17:56:44.324Z,66.68
2022-09-12T17:59:15.214Z,66.59
2022-09-12T18:02:01.259Z,66.98
2022-09-12T18:04:28.693Z,67.64
2022-09-12T18:06:57.656Z,67.53
2022-09-12T18:09:28.448Z,67.69
2022-09-12T18:11:56.274Z,68.02
2022-09-12T18:14:24.755Z,68.75
2022-09-12T18:16:52.472Z,68.20
2022-09-12T18:19:19.847Z,68.43
2022-09-12T18:21:47.151Z,68.48
2022-09-12T18:24:14.917Z,68.76
2022-09-12T18:26:43.656Z,68.67
2022-09-12T18:29:11.463Z,69.29
2022-09-12T18:31:38.769Z,69.29
2022-09-12T18:34:07.744Z,69.55
2022-09-12T18:36:34.949Z,69.90
2022-09-12T18:39:02.187Z,70.09
2022-09-12T18:41:29.394Z,70.31
2022-09-12T18:44:01.264Z,70.25
2022-09-12T18:46:30.171Z,70.08
2022-09-12T18:48:59.025Z,69.96
2022-09-12T18:51:31.653Z,70.13
2022-09-12T18:54:05.378Z,70.64
2022-09-12T18:56:34.617Z,70.12
2022-09-12T18:59:05.127Z,70.05
2022-09-12T19:01:35.490Z,70.06
2022-09-12T19:04:06.072Z,69.76
2022-09-12T19:06:39.629Z,69.97
2022-09-12T19:09:08.984Z,70.00
2022-09-12T19:11:38.463Z,70.25
2022-09-12T19:14:06.727Z,70.29
2022-09-12T19:16:34.776Z,70.21
2022-09-12T19:19:02.684Z,70.07
2022-09-12T19:21:31.327Z,70.40
2022-09-12T19:24:04.615Z,70.35
2022-09-12T19:26:32.789Z,70.96
2022-09-12T19:29:02.495Z,71.12
2022-09-12T19:31:30.591Z,71.38
2022-09-12T19:34:02.102Z,71.80
2022-09-12T19:36:46.643Z,71.72
2022-09-12T19:39:16.421Z,71.53
2022-09-12T19:41:44.951Z,71.30
2022-09-12T19:44:12.656Z,71.08
2022-09-12T19:46:40.505Z,70.95
2022-09-12T19:49:09.366Z,70.87
2022-09-12T19:51:36.612Z,70.71
2022-09-12T19:54:04.033Z,71.16
2022-09-12T19:56:31.298Z,71.42
2022-09-12T19:58:58.624Z,71.44
2022-09-12T20:01:30.212Z,71.83
2022-09-12T20:03:58.245Z,72.09
2022-09-12T20:06:26.466Z,71.89
2022-09-12T20:08:54.158Z,72.14
2022-09-12T20:11:23.551Z,72.31
2022-09-12T20:13:51.927Z,72.43
2022-09-12T20:16:25.831Z,72.37
2022-09-12T20:18:55.859Z,72.69
2022-09-12T20:21:25.697Z,73.08
2022-09-12T20:23:52.927Z,72.47
2022-09-12T20:26:20.515Z,72.71
2022-09-12T20:28:48.044Z,72.71
2022-09-12T20:31:16.565Z,72.78
2022-09-12T20:33:47.520Z,73.02
2022-09-12T20:36:19.498Z,73.02
2022-09-12T20:38:50.443Z,73.39
2022-09-12T20:41:19.017Z,73.43
2022-09-12T20:43:50.175Z,73.67
2022-09-12T20:46:21.650Z,73.56
2022-09-12T20:48:50.832Z,73.82
2022-09-12T20:51:19.208Z,74.09
2022-09-12T20:53:46.961Z,74.14
2022-09-12T20:56:15.086Z,74.36
2022-09-12T20:58:44.399Z,74.60
2022-09-12T21:01:13.909Z,74.93
2022-09-12T21:03:42.602Z,74.70
2022-09-12T21:06:12.553Z,74.58
2022-09-12T21:08:40.297Z,74.70
2022-09-12T21:11:07.714Z,74.71
2022-09-12T21:13:35.689Z,74.51
2022-09-12T21:16:05.839Z,74.29
2022-09-12T21:18:34.555Z,74.76
2022-09-12T21:21:02.002Z,74.54
2022-09-12T21:23:29.671Z,74.44
2022-09-12T21:25:58.922Z,74.38
2022-09-12T21:28:26.687Z,74.35
2022-09-12T21:30:54.007Z,74.48
2022-09-12T21:33:21.536Z,74.77
2022-09-12T21:35:49.666Z,74.92
2022-09-12T21:38:18.219Z,74.72
2022-09-12T21:40:46.731Z,75.09
2022-09-12T21:43:14.651Z,75.05
2022-09-12T21:45:42.099Z,75.25
2022-09-12T21:48:09.345Z,75.41
2022-09-12T21:50:36.583Z,75.58
2022-09-12T21:53:03.844Z,75.60
2022-09-12T21:55:31.166Z,75.60
2022-09-12T21:57:58.415Z,75.57
2022-09-12T22:00:25.665Z,75.28
2022-09-12T22:02:53.767Z,75.20
2022-09-12T22:05:24.663Z,75.03
2022-09-12T22:07:52.546Z,75.18
2022-09-12T22:10:19.800Z,74.89
2022-09-12T22:12:47.061Z,74.69
2022-09-12T22:15:39.659Z,74.63
2022-09-12T22:18:02.282Z,74.53
2022-09-12T22:20:29.673Z,74.50
2022-09-12T22:23:15.822Z,74.32
2022-09-12T22:25:43.215Z,74.20
2022-09-12T22:28:10.763Z,74.07
2022-09-12T22:30:38.658Z,73.82
2022-09-12T22:33:05.859Z,73.78
2022-09-12T22:35:33.080Z,73.63
2022-09-12T22:38:00.291Z,73.50
2022-09-12T22:40:27.640Z,73.66
2022-09-12T22:42:55.012Z,73.65
2022-09-12T22:45:22.210Z,73.53
2022-09-12T22:47:49.443Z,73.68
2022-09-12T22:50:16.720Z,73.57
2022-09-12T22:52:44.427Z,73.62
2022-09-12T22:55:11.711Z,73.68
2022-09-12T22:57:39.691Z,73.72
2022-09-12T23:00:10.522Z,73.86
2022-09-12T23:02:38.168Z,73.73
2022-09-12T23:05:06.152Z,73.94
2022-09-12T23:07:33.727Z,74.36
2022-09-12T23:10:00.979Z,74.50
2022-09-12T23:12:28.171Z,74.94
2022-09-12T23:14:55.388Z,75.45
2022-09-12T23:17:22.729Z,76.06
2022-09-12T23:19:49.928Z,75.92
2022-09-12T23:22:17.162Z,75.99
2022-09-12T23:24:44.543Z,76.21
2022-09-12T23:27:11.798Z,76.40
2022-09-12T23:29:39.013Z,76.57
2022-09-12T23:32:06.801Z,76.51
2022-09-12T23:34:34.097Z,76.55
2022-09-12T23:37:01.339Z,77.11
2022-09-12T23:39:28.678Z,77.13
2022-09-12T23:41:55.883Z,77.23
2022-09-12T23:44:23.102Z,77.38
2022-09-12T23:46:50.331Z,77.68
2022-09-12T23:49:17.735Z,77.83
2022-09-12T23:51:44.950Z,77.79
2022-09-12T23:54:12.182Z,77.67
2022-09-12T23:56:39.401Z,77.64
2022-09-12T23:59:06.697Z,78.23
